createdAt,value
2022-10-31T00:00:02.304Z,12.25
2022-10-31T00:02:31.761Z,20.30
2022-10-31T00:05:02.934Z,18.98
2022-10-31T00:07:32.431Z,19.73
2022-10-31T00:10:01.128Z,22.30
2022-10-31T00:12:35.124Z,25.15
2022-10-31T00:15:04.628Z,17.83
2022-10-31T00:17:33.181Z,21.63
2022-10-31T00:20:02.986Z,18.10
2022-10-31T00:22:31.821Z,24.65
2022-10-31T00:25:01.285Z,19.58
2022-10-31T00:27:29.959Z,19.63
2022-10-31T00:30:01.172Z,19.42
2022-10-31T00:32:32.516Z,26.27
2022-10-31T00:35:02.833Z,18.90
2022-10-31T00:37:31.809Z,23.73
2022-10-31T00:40:02.372Z,25.38
2022-10-31T00:42:34.616Z,25.25
2022-10-31T00:45:08.271Z,22.23
2022-10-31T00:47:37.300Z,27.25
2022-10-31T00:50:10.378Z,24.05
2022-10-31T00:52:39.187Z,19.48
2022-10-31T00:55:10.287Z,24.17
2022-10-31T00:57:38.851Z,24.35
2022-10-31T01:00:13.518Z,30.52
2022-10-31T01:02:42.669Z,21.48
2022-10-31T01:05:13.169Z,17.70
2022-10-31T01:07:43.972Z,20.23
2022-10-31T01:10:15.190Z,19.00
2022-10-31T01:12:52.169Z,20.52
2022-10-31T01:15:24.364Z,17.88
2022-10-31T01:17:54.548Z,21.92
2022-10-31T01:20:25.422Z,23.98
2022-10-31T01:22:54.226Z,18.30
2022-10-31T01:25:25.409Z,17.35
2022-10-31T01:27:53.747Z,17.17
2022-10-31T01:30:27.772Z,17.10
2022-10-31T01:32:56.871Z,25.88
2022-10-31T01:35:26.756Z,18.90
2022-10-31T01:37:55.436Z,22.88
2022-10-31T01:40:25.780Z,19.48
2022-10-31T01:42:54.923Z,19.05
2022-10-31T01:45:25.757Z,28.65
2022-10-31T01:47:56.335Z,21.25
2022-10-31T01:50:35.072Z,19.23
2022-10-31T01:53:07.620Z,18.33
2022-10-31T01:55:40.876Z,21.98
2022-10-31T01:58:15.545Z,25.73
2022-10-31T02:00:49.030Z,24.60
2022-10-31T02:03:19.097Z,25.80
2022-10-31T02:05:54.687Z,20.95
2022-10-31T02:08:28.720Z,19.83
2022-10-31T02:11:02.858Z,24.02
2022-10-31T02:13:37.456Z,22.17
2022-10-31T02:16:08.372Z,22.60
2022-10-31T02:18:38.518Z,30.05
2022-10-31T02:21:20.231Z,22.80
2022-10-31T02:24:33.305Z,24.48
2022-10-31T02:27:49.207Z,27.52
2022-10-31T02:30:21.126Z,29.67
2022-10-31T02:33:25.818Z,28.92
2022-10-31T02:36:08.156Z,27.50
2022-10-31T02:38:52.267Z,29.67
2022-10-31T02:41:35.327Z,25.25
2022-10-31T02:44:14.612Z,27.17
2022-10-31T02:46:51.269Z,30.05
2022-10-31T02:49:33.638Z,23.70
2022-10-31T02:52:16.215Z,27.48
2022-10-31T02:54:47.770Z,28.38
2022-10-31T02:57:20.242Z,31.35
2022-10-31T02:59:55.458Z,30.25
2022-10-31T03:02:46.551Z,24.80
2022-10-31T03:05:43.154Z,28.92
2022-10-31T03:08:24.085Z,25.90
2022-10-31T03:11:00.143Z,30.33
2022-10-31T03:13:39.076Z,27.73
2022-10-31T03:16:15.618Z,31.77
2022-10-31T03:18:48.963Z,31.10
2022-10-31T03:21:24.174Z,36.70
2022-10-31T03:23:57.552Z,32.60
2022-10-31T03:26:27.455Z,32.10
2022-10-31T03:29:01.671Z,35.42
2022-10-31T03:31:34.453Z,39.13
2022-10-31T03:34:06.624Z,34.75
2022-10-31T03:36:40.858Z,46.63
2022-10-31T03:39:15.187Z,40.58
2022-10-31T03:41:50.410Z,43.83
2022-10-31T03:44:22.357Z,45.42
2022-10-31T03:46:52.276Z,42.08
2022-10-31T03:49:21.268Z,50.05
2022-10-31T03:52:03.991Z,38.65
2022-10-31T03:54:42.993Z,46.17
2022-10-31T03:57:24.151Z,45.25
2022-10-31T04:00:00.881Z,44.17
2022-10-31T04:02:38.777Z,47.72
2022-10-31T04:05:12.934Z,48.28
2022-10-31T04:07:48.518Z,54.65
2022-10-31T04:10:22.861Z,60.58
2022-10-31T04:13:03.912Z,63.58
2022-10-31T04:15:36.304Z,60.35
2022-10-31T04:18:09.145Z,69.32
2022-10-31T04:20:42.133Z,65.53
2022-10-31T04:23:22.426Z,69.68
2022-10-31T04:25:52.018Z,72.72
2022-10-31T04:28:23.762Z,67.47
2022-10-31T04:30:55.136Z,78.50
2022-10-31T04:33:26.381Z,79.97
2022-10-31T04:35:55.067Z,89.68
2022-10-31T04:38:27.924Z,79.20
2022-10-31T04:40:56.320Z,78.07
2022-10-31T04:43:25.617Z,80.40
2022-10-31T04:45:55.469Z,81.53
2022-10-31T04:48:29.005Z,80.93
2022-10-31T04:51:02.739Z,81.85
2022-10-31T04:53:35.514Z,84.70
2022-10-31T04:56:04.483Z,79.97
2022-10-31T04:58:35.440Z,80.72
2022-10-31T05:01:04.745Z,74.00
2022-10-31T05:03:33.954Z,87.05
2022-10-31T05:06:02.407Z,83.53
2022-10-31T05:08:34.874Z,82.40
2022-10-31T05:11:06.154Z,85.70
2022-10-31T05:13:36.860Z,94.90
2022-10-31T05:16:12.423Z,76.28
2022-10-31T05:18:42.426Z,75.93
2022-10-31T05:21:11.221Z,83.05
2022-10-31T05:23:45.852Z,76.85
2022-10-31T05:26:17.079Z,78.40
2022-10-31T05:28:45.573Z,76.35
2022-10-31T05:31:14.236Z,83.38
2022-10-31T05:33:43.813Z,73.90
2022-10-31T05:36:13.064Z,80.20
2022-10-31T05:38:46.151Z,66.55
2022-10-31T05:41:15.757Z,72.25
2022-10-31T05:43:48.032Z,78.72
2022-10-31T05:46:17.528Z,73.05
2022-10-31T05:48:47.779Z,78.75
2022-10-31T05:51:28.317Z,81.00
2022-10-31T05:53:59.581Z,77.97
2022-10-31T05:56:29.271Z,83.38
2022-10-31T05:58:58.678Z,87.07
2022-10-31T06:01:27.738Z,86.25
2022-10-31T06:04:00.024Z,78.78
2022-10-31T06:06:34.964Z,75.03
2022-10-31T06:09:08.385Z,80.28
2022-10-31T06:11:39.259Z,68.93
2022-10-31T06:14:09.175Z,80.90
2022-10-31T06:16:43.657Z,70.95
2022-10-31T06:19:12.831Z,74.83
2022-10-31T06:21:42.923Z,72.88
2022-10-31T06:24:14.138Z,73.22
2022-10-31T06:26:45.716Z,72.30
2022-10-31T06:29:14.282Z,69.00
2022-10-31T06:31:44.218Z,79.03
2022-10-31T06:34:12.811Z,72.90
2022-10-31T06:36:44.184Z,65.45
2022-10-31T06:39:15.181Z,62.53
2022-10-31T06:41:44.963Z,74.93
2022-10-31T06:44:16.367Z,72.47
2022-10-31T06:46:45.029Z,71.30
2022-10-31T06:49:25.484Z,68.50
2022-10-31T06:54:39.110Z,67.70
2022-10-31T06:57:08.133Z,78.47
2022-10-31T06:59:38.472Z,82.15
2022-10-31T07:02:26.355Z,93.40
2022-10-31T07:04:56.025Z,84.13
2022-10-31T07:07:25.333Z,86.95
2022-10-31T07:09:57.609Z,90.15
2022-10-31T07:15:17.563Z,102.22
2022-10-31T07:20:40.035Z,97.75
2022-10-31T07:23:11.068Z,107.10
2022-10-31T07:25:50.024Z,97.32
2022-10-31T07:28:18.920Z,103.65
2022-10-31T07:30:53.599Z,104.07
2022-10-31T07:33:23.831Z,106.90
2022-10-31T07:35:52.880Z,110.95
2022-10-31T07:38:22.594Z,114.65
2022-10-31T07:40:55.253Z,122.78
2022-10-31T07:43:24.633Z,120.22
2022-10-31T07:45:56.229Z,123.45
2022-10-31T07:48:24.864Z,125.40
2022-10-31T07:50:53.621Z,129.20
2022-10-31T07:53:24.572Z,140.02
2022-10-31T07:55:55.094Z,140.57
2022-10-31T07:58:23.525Z,137.35
2022-10-31T08:00:52.613Z,134.13
2022-10-31T08:03:26.303Z,142.35
2022-10-31T08:05:55.596Z,142.00
2022-10-31T08:08:33.433Z,158.75
2022-10-31T08:11:10.620Z,151.23
2022-10-31T08:13:47.251Z,159.63
2022-10-31T08:16:18.815Z,151.02
2022-10-31T08:18:53.187Z,146.60
2022-10-31T08:21:23.345Z,156.85
2022-10-31T08:23:54.448Z,141.48
2022-10-31T08:26:24.801Z,141.45
2022-10-31T08:28:56.570Z,134.40
2022-10-31T08:31:33.152Z,131.85
2022-10-31T08:34:05.839Z,113.22
2022-10-31T08:36:36.208Z,108.90
2022-10-31T08:39:06.244Z,101.85
2022-10-31T08:41:38.809Z,103.70
2022-10-31T08:44:08.128Z,96.13
2022-10-31T08:46:36.850Z,90.90
2022-10-31T08:49:05.596Z,99.80
2022-10-31T08:51:34.508Z,92.65
2022-10-31T08:54:03.345Z,83.88
2022-10-31T08:56:38.789Z,86.72
2022-10-31T09:01:37.833Z,79.32
2022-10-31T09:04:06.351Z,80.03
2022-10-31T09:06:35.167Z,82.93
2022-10-31T09:09:05.850Z,79.30
2022-10-31T09:11:37.190Z,66.22
2022-10-31T09:14:05.683Z,67.72
2022-10-31T09:16:35.494Z,69.03
2022-10-31T09:19:10.336Z,60.60
2022-10-31T09:21:40.300Z,54.55
2022-10-31T09:24:10.291Z,57.72
2022-10-31T09:26:41.382Z,54.20
2022-10-31T09:29:11.283Z,48.33
2022-10-31T09:31:45.053Z,45.53
2022-10-31T09:34:21.905Z,49.33
2022-10-31T09:36:52.563Z,47.92
2022-10-31T09:39:21.915Z,47.20
2022-10-31T09:42:11.551Z,36.90
2022-10-31T09:44:54.829Z,46.80
2022-10-31T09:47:49.798Z,37.20
2022-10-31T09:50:24.418Z,34.50
2022-10-31T09:53:03.202Z,30.67
2022-10-31T09:55:41.182Z,32.20
2022-10-31T09:58:21.702Z,29.65
2022-10-31T10:00:52.930Z,30.73
2022-10-31T10:03:34.743Z,35.90
2022-10-31T10:06:14.273Z,35.53
2022-10-31T10:08:43.376Z,32.00
2022-10-31T10:11:31.727Z,30.08
2022-10-31T10:14:34.994Z,30.67
2022-10-31T10:17:16.917Z,25.13
2022-10-31T10:20:14.945Z,23.83
2022-10-31T10:22:52.654Z,27.45
2022-10-31T10:25:25.788Z,29.05
2022-10-31T10:28:11.560Z,27.10
2022-10-31T10:33:21.814Z,28.17
2022-10-31T10:36:00.410Z,25.08
2022-10-31T10:38:39.291Z,27.83
2022-10-31T10:41:16.318Z,23.50
2022-10-31T10:43:44.331Z,25.60
2022-10-31T10:46:54.550Z,21.70
2022-10-31T10:49:35.892Z,21.08
2022-10-31T10:52:39.626Z,21.40
2022-10-31T10:55:21.659Z,20.40
2022-10-31T10:58:02.982Z,22.60
2022-10-31T11:00:37.804Z,17.45
2022-10-31T11:03:09.547Z,18.17
2022-10-31T11:05:43.832Z,24.83
2022-10-31T11:08:13.269Z,24.00
2022-10-31T11:10:42.246Z,17.33
2022-10-31T11:13:25.811Z,18.23
2022-10-31T11:16:02.447Z,18.52
2022-10-31T11:18:38.983Z,18.02
2022-10-31T11:21:22.864Z,18.38
2022-10-31T11:23:51.764Z,21.90
2022-10-31T11:26:22.957Z,20.20
2022-10-31T11:29:05.173Z,16.27
2022-10-31T11:31:37.372Z,17.35
2022-10-31T11:34:23.784Z,18.10
2022-10-31T11:36:54.100Z,18.17
2022-10-31T11:39:25.953Z,25.25
2022-10-31T11:41:56.658Z,19.25
2022-10-31T11:44:31.073Z,18.08
2022-10-31T11:47:03.562Z,20.02
2022-10-31T11:49:37.069Z,24.92
2022-10-31T11:52:10.804Z,27.85
2022-10-31T11:54:51.197Z,20.80
2022-10-31T11:57:30.853Z,26.92
2022-10-31T12:00:04.487Z,27.65
2022-10-31T12:02:33.891Z,29.02
2022-10-31T12:05:22.728Z,27.83
2022-10-31T12:08:03.444Z,27.98
2022-10-31T12:10:43.533Z,28.63
2022-10-31T12:13:39.235Z,30.23
2022-10-31T12:16:23.333Z,35.85
2022-10-31T12:19:07.647Z,35.42
2022-10-31T12:22:04.468Z,27.58
2022-10-31T12:24:50.099Z,30.77
2022-10-31T12:27:32.279Z,32.10
2022-10-31T12:30:21.805Z,28.48
2022-10-31T12:33:32.461Z,34.70
2022-10-31T12:36:17.532Z,33.15
2022-10-31T12:39:36.670Z,35.95
2022-10-31T12:42:20.801Z,30.73
2022-10-31T12:45:16.296Z,31.20
2022-10-31T12:48:12.186Z,30.25
2022-10-31T12:50:58.833Z,30.88
2022-10-31T12:53:58.712Z,29.75
2022-10-31T12:56:48.245Z,28.77
2022-10-31T12:59:33.454Z,35.38
2022-10-31T13:02:13.499Z,34.50
2022-10-31T13:04:50.129Z,33.65
2022-10-31T13:07:32.526Z,35.50
2022-10-31T13:10:10.128Z,36.85
2022-10-31T13:12:42.119Z,36.50
2022-10-31T13:15:21.621Z,36.58
2022-10-31T13:17:59.311Z,40.15
2022-10-31T13:20:32.708Z,36.83
2022-10-31T13:23:30.004Z,36.47
2022-10-31T13:26:13.046Z,37.50
2022-10-31T13:33:51.731Z,40.70
2022-10-31T13:36:33.465Z,41.28
2022-10-31T13:39:19.516Z,49.33
2022-10-31T13:41:54.400Z,45.20
2022-10-31T13:44:37.434Z,44.42
2022-10-31T13:47:30.777Z,46.03
2022-10-31T13:50:28.426Z,42.03
2022-10-31T13:53:15.915Z,43.38
2022-10-31T13:55:47.530Z,46.13
2022-10-31T13:58:27.312Z,49.65
2022-10-31T14:01:20.100Z,39.05
2022-10-31T14:04:14.909Z,40.40
2022-10-31T14:06:59.614Z,39.75
2022-10-31T14:09:33.445Z,36.40
2022-10-31T14:12:09.640Z,34.35
2022-10-31T14:14:50.470Z,38.80
2022-10-31T14:17:49.908Z,42.10
2022-10-31T14:20:35.090Z,43.95
2022-10-31T14:23:16.524Z,42.38
2022-10-31T14:25:46.456Z,43.60
2022-10-31T14:28:34.378Z,47.03
2022-10-31T14:31:03.384Z,42.10
2022-10-31T14:33:35.644Z,46.60
2022-10-31T14:36:19.750Z,39.28
2022-10-31T14:39:00.578Z,38.38
2022-10-31T14:41:50.859Z,46.95
2022-10-31T14:45:02.956Z,40.67
2022-10-31T14:47:48.036Z,42.30
2022-10-31T14:50:53.739Z,38.20
2022-10-31T14:53:36.942Z,33.65
2022-10-31T14:56:13.461Z,40.63
2022-10-31T14:58:48.423Z,40.22
2022-10-31T15:01:27.661Z,39.20
2022-10-31T15:04:24.355Z,38.60
2022-10-31T15:07:04.420Z,39.30
2022-10-31T15:09:37.004Z,40.78
2022-10-31T15:12:27.007Z,42.53
2022-10-31T15:15:00.193Z,41.97
2022-10-31T15:17:32.650Z,44.75
2022-10-31T15:20:13.724Z,41.78
2022-10-31T15:22:44.178Z,39.35
2022-10-31T15:25:22.161Z,42.05
2022-10-31T15:27:53.070Z,43.47
2022-10-31T15:30:27.005Z,44.38
2022-10-31T15:32:59.435Z,43.85
2022-10-31T15:35:30.734Z,42.30
2022-10-31T15:38:05.400Z,42.58
2022-10-31T15:40:34.550Z,42.83
2022-10-31T15:43:08.866Z,50.80
2022-10-31T15:45:37.948Z,47.75
2022-10-31T15:48:25.969Z,48.10
2022-10-31T15:50:58.577Z,43.53
2022-10-31T15:53:40.866Z,44.97
2022-10-31T15:56:17.180Z,50.30
2022-10-31T15:58:48.684Z,44.47
2022-10-31T16:01:26.881Z,49.85
2022-10-31T16:04:24.334Z,52.55
2022-10-31T16:07:04.013Z,45.03
2022-10-31T16:09:35.979Z,56.58
2022-10-31T16:12:07.044Z,49.10
2022-10-31T16:14:41.400Z,53.78
2022-10-31T16:17:15.548Z,54.10
2022-10-31T16:19:56.005Z,58.92
2022-10-31T16:22:34.517Z,50.17
2022-10-31T16:25:12.711Z,58.72
2022-10-31T16:27:53.912Z,61.15
2022-10-31T16:30:47.943Z,59.30
2022-10-31T16:33:29.506Z,59.17
2022-10-31T16:36:30.089Z,51.97
2022-10-31T16:38:54.867Z,51.30
2022-10-31T16:41:28.884Z,51.88
2022-10-31T16:43:57.830Z,57.72
2022-10-31T16:46:30.716Z,58.03
2022-10-31T16:49:00.997Z,56.05
2022-10-31T16:51:42.828Z,52.45
2022-10-31T16:54:12.133Z,57.63
2022-10-31T16:56:44.605Z,57.95
2022-10-31T16:59:16.508Z,59.92
2022-10-31T17:01:51.309Z,53.65
2022-10-31T17:04:20.245Z,60.53
2022-10-31T17:06:54.812Z,62.75
2022-10-31T17:09:34.066Z,58.43
2022-10-31T17:12:09.848Z,57.50
2022-10-31T17:14:48.273Z,57.00
2022-10-31T17:17:18.441Z,54.42
2022-10-31T17:19:49.000Z,51.22
2022-10-31T17:22:17.911Z,61.42
2022-10-31T17:24:47.370Z,48.70
2022-10-31T17:27:19.348Z,58.13
2022-10-31T17:29:48.360Z,59.22
2022-10-31T17:32:17.339Z,55.75
2022-10-31T17:34:50.374Z,56.25
2022-10-31T17:37:19.447Z,53.35
2022-10-31T17:39:48.825Z,60.60
2022-10-31T17:42:19.145Z,66.18
2022-10-31T17:45:04.458Z,56.47
2022-10-31T17:47:34.218Z,64.75
2022-10-31T17:50:07.219Z,50.72
2022-10-31T17:52:35.676Z,64.45
2022-10-31T17:55:04.807Z,65.70
2022-10-31T17:57:39.518Z,61.70
2022-10-31T18:00:15.601Z,62.05
2022-10-31T18:02:44.218Z,58.97
2022-10-31T18:05:13.241Z,60.65
2022-10-31T18:07:43.558Z,66.10
2022-10-31T18:10:12.447Z,71.03
2022-10-31T18:12:43.300Z,62.50
2022-10-31T18:15:13.201Z,68.57
2022-10-31T18:17:44.663Z,62.55
2022-10-31T18:20:13.948Z,66.15
2022-10-31T18:22:43.261Z,64.85
2022-10-31T18:25:12.375Z,68.78
2022-10-31T18:27:46.268Z,71.18
2022-10-31T18:30:18.112Z,73.45
2022-10-31T18:32:59.223Z,73.07
2022-10-31T18:35:32.897Z,76.60
2022-10-31T18:38:09.444Z,80.80
2022-10-31T18:40:38.810Z,61.35
2022-10-31T18:43:11.258Z,73.15
2022-10-31T18:45:49.525Z,68.53
2022-10-31T18:48:21.289Z,67.68
2022-10-31T18:50:59.388Z,74.80
2022-10-31T18:53:28.628Z,75.38
2022-10-31T18:55:59.783Z,65.10
2022-10-31T18:58:30.996Z,73.80
2022-10-31T19:01:02.252Z,68.50
2022-10-31T19:03:32.279Z,70.00
2022-10-31T19:06:03.012Z,63.95
2022-10-31T19:08:33.012Z,71.28
2022-10-31T19:11:09.182Z,66.05
2022-10-31T19:13:40.535Z,63.30
2022-10-31T19:16:15.694Z,69.50
2022-10-31T19:18:45.565Z,62.67
2022-10-31T19:21:16.888Z,70.20
2022-10-31T19:23:49.780Z,68.25
2022-10-31T19:26:18.797Z,67.60
2022-10-31T19:28:49.721Z,56.97
2022-10-31T19:31:19.043Z,65.07
2022-10-31T19:33:50.016Z,59.42
2022-10-31T19:36:21.222Z,59.33
2022-10-31T19:38:53.221Z,54.85
2022-10-31T19:41:27.668Z,60.53
2022-10-31T19:44:01.259Z,55.75
2022-10-31T19:46:52.360Z,63.08
2022-10-31T19:49:23.217Z,52.08
2022-10-31T19:51:52.396Z,50.63
2022-10-31T19:54:22.977Z,54.70
2022-10-31T19:56:52.398Z,48.20
2022-10-31T19:59:23.637Z,50.03
2022-10-31T20:01:52.578Z,56.90
2022-10-31T20:04:26.020Z,55.28
2022-10-31T20:06:56.003Z,55.58
2022-10-31T20:09:47.479Z,53.65
2022-10-31T20:12:16.840Z,56.28
2022-10-31T20:17:34.829Z,48.40
2022-10-31T20:20:08.714Z,42.88
2022-10-31T20:22:38.188Z,49.92
2022-10-31T20:25:08.526Z,50.28
2022-10-31T20:27:37.282Z,39.35
2022-10-31T20:30:12.373Z,44.92
2022-10-31T20:32:43.446Z,42.63
2022-10-31T20:35:15.390Z,45.80
2022-10-31T20:37:44.384Z,49.80
2022-10-31T20:40:13.871Z,39.47
2022-10-31T20:42:45.789Z,40.10
2022-10-31T20:45:16.307Z,41.15
2022-10-31T20:47:48.628Z,33.55
2022-10-31T20:50:19.666Z,36.10
2022-10-31T20:52:48.572Z,35.78
2022-10-31T20:55:18.741Z,40.60
2022-10-31T20:57:49.605Z,36.63
2022-10-31T21:03:31.922Z,36.55
2022-10-31T21:06:04.167Z,30.47
2022-10-31T21:11:11.265Z,25.67
2022-10-31T21:13:43.213Z,26.33
2022-10-31T21:16:18.042Z,28.08
2022-10-31T21:18:49.331Z,25.75
2022-10-31T21:21:21.485Z,23.67
2022-10-31T21:23:55.197Z,30.38
2022-10-31T21:26:27.959Z,22.23
2022-10-31T21:28:59.490Z,31.27
2022-10-31T21:31:29.728Z,22.35
2022-10-31T21:33:59.611Z,36.08
2022-10-31T21:36:29.751Z,20.65
2022-10-31T21:39:01.515Z,31.60
2022-10-31T21:41:31.222Z,18.60
2022-10-31T21:44:01.873Z,27.83
2022-10-31T21:46:33.793Z,23.15
2022-10-31T21:49:05.010Z,27.95
2022-10-31T21:51:37.070Z,21.85
2022-10-31T21:54:25.461Z,21.17
2022-10-31T21:56:57.124Z,16.52
2022-10-31T21:59:28.487Z,25.27
2022-10-31T22:02:00.984Z,20.50
2022-10-31T22:04:29.915Z,27.33
2022-10-31T22:06:58.463Z,18.98
2022-10-31T22:09:27.814Z,22.55
2022-10-31T22:11:57.614Z,27.77
2022-10-31T22:14:26.834Z,24.23
2022-10-31T22:16:57.846Z,20.77
2022-10-31T22:19:29.335Z,19.75
2022-10-31T22:22:00.164Z,22.55
2022-10-31T22:24:29.944Z,21.73
2022-10-31T22:26:59.072Z,17.75
2022-10-31T22:29:29.153Z,19.85
2022-10-31T22:32:01.973Z,18.90
2022-10-31T22:34:31.348Z,19.55
2022-10-31T22:37:02.332Z,14.73
2022-10-31T22:39:31.421Z,20.38
2022-10-31T22:42:00.131Z,19.45
2022-10-31T22:44:29.726Z,18.15
2022-10-31T22:47:00.905Z,20.52
2022-10-31T22:49:30.408Z,17.77
2022-10-31T22:52:03.783Z,20.35
2022-10-31T22:54:43.988Z,25.40
2022-10-31T22:57:15.412Z,19.88
2022-10-31T22:59:45.117Z,18.55
2022-10-31T23:02:17.473Z,23.88
2022-10-31T23:04:47.948Z,17.00
2022-10-31T23:07:23.042Z,17.02
2022-10-31T23:09:55.226Z,19.10
2022-10-31T23:12:42.541Z,15.15
2022-10-31T23:15:13.344Z,16.80
2022-10-31T23:17:54.826Z,21.33
2022-10-31T23:20:25.853Z,16.13
2022-10-31T23:22:57.443Z,20.30
2022-10-31T23:25:45.419Z,21.38
2022-10-31T23:28:14.952Z,23.88
2022-10-31T23:30:48.015Z,21.38
2022-10-31T23:33:20.864Z,18.25
2022-10-31T23:35:49.454Z,23.05
2022-10-31T23:38:25.320Z,17.85
2022-10-31T23:40:54.263Z,18.92
2022-10-31T23:43:23.149Z,14.90
2022-10-31T23:45:52.169Z,17.58
2022-10-31T23:48:23.935Z,23.10
2022-10-31T23:50:53.750Z,18.85
2022-10-31T23:53:23.470Z,24.80
2022-10-31T23:55:58.285Z,21.50
2022-10-31T23:58:27.260Z,19.52
